﻿<?xml version="1.0" encoding="UTF-8" standalone="no" ?>
<gpx xmlns="http://www.topografix.com/GPX/1/1" creator="CompeGPS" version="1.1" xmlns:xsi="http://www.w3.org/2001/XMLSchema-instance" xsi:schemaLocation="http://www.topografix.com/GPX/1/1 http://www.topografix.com/GPX/1/1/gpx.xsd http://www.garmin.com/xmlschemas/GpxExtensions/v3 http://www.garmin.com/xmlschemas/GpxExtensionsv3.xsd http://www.garmin.com/xmlschemas/TrackPointExtension/v1 http://www.garmin.com/xmlschemas/TrackPointExtensionv1.xsd" xmlns:gpxtpx="http://www.garmin.com/xmlschemas/TrackPointExtension/v1">
  <metadata>
    <link href="http://www.compegps.com">
      <text>CompeGPS TEAM, SL</text>
    </link>
    <time>2018-12-08T16:06:25Z</time>
    <bounds maxlat="43.069121" maxlon="-0.079621" minlat="43.051829" minlon="-0.091457"/>
  </metadata>
  <trk>
    <name>pic_du_pibeste</name>
    <userMyTwoNav></userMyTwoNav>
    <serialNumber></serialNumber>
    <trkseg>
      <trkpt lat="43.069121" lon="-0.091311">
        <ele>726.5</ele>
        <time>2018-12-07T11:36:24Z</time>
      </trkpt>
      <trkpt lat="43.069029" lon="-0.091271">
        <ele>726.8</ele>
        <time>2018-12-07T11:36:35Z</time>
      </trkpt>
      <trkpt lat="43.068926" lon="-0.091206">
        <ele>727.2</ele>
        <time>2018-12-07T11:36:53Z</time>
      </trkpt>
      <trkpt lat="43.068846" lon="-0.091167">
        <ele>727.1</ele>
        <time>2018-12-07T11:37:01Z</time>
      </trkpt>
      <trkpt lat="43.068751" lon="-0.091197">
        <ele>727.7</ele>
        <time>2018-12-07T11:37:10Z</time>
      </trkpt>
      <trkpt lat="43.068644" lon="-0.091209">
        <ele>727.9</ele>
        <time>2018-12-07T11:37:18Z</time>
      </trkpt>
      <trkpt lat="43.068520" lon="-0.091222">
        <ele>728.1</ele>
        <time>2018-12-07T11:37:26Z</time>
      </trkpt>
      <trkpt lat="43.068402" lon="-0.091231">
        <ele>728.3</ele>
        <time>2018-12-07T11:37:35Z</time>
      </trkpt>
      <trkpt lat="43.068301" lon="-0.091258">
        <ele>728.4</ele>
        <time>2018-12-07T11:37:43Z</time>
      </trkpt>
      <trkpt lat="43.068195" lon="-0.091286">
        <ele>728.6</ele>
        <time>2018-12-07T11:37:51Z</time>
      </trkpt>
      <trkpt lat="43.068097" lon="-0.091339">
        <ele>728.7</ele>
        <time>2018-12-07T11:37:59Z</time>
      </trkpt>
      <trkpt lat="43.067996" lon="-0.091379">
        <ele>729.1</ele>
        <time>2018-12-07T11:38:07Z</time>
      </trkpt>
      <trkpt lat="43.067887" lon="-0.091413">
        <ele>729.9</ele>
        <time>2018-12-07T11:38:15Z</time>
      </trkpt>
      <trkpt lat="43.067783" lon="-0.091440">
        <ele>730.9</ele>
        <time>2018-12-07T11:38:23Z</time>
      </trkpt>
      <trkpt lat="43.067680" lon="-0.091457">
        <ele>731.7</ele>
        <time>2018-12-07T11:38:31Z</time>
      </trkpt>
      <trkpt lat="43.067568" lon="-0.091428">
        <ele>732.7</ele>
        <time>2018-12-07T11:38:39Z</time>
      </trkpt>
      <trkpt lat="43.067476" lon="-0.091368">
        <ele>733.7</ele>
        <time>2018-12-07T11:38:48Z</time>
      </trkpt>
      <trkpt lat="43.067414" lon="-0.091264">
        <ele>734.2</ele>
        <time>2018-12-07T11:38:56Z</time>
      </trkpt>
      <trkpt lat="43.067365" lon="-0.091147">
        <ele>734.5</ele>
        <time>2018-12-07T11:39:02Z</time>
      </trkpt>
      <trkpt lat="43.067313" lon="-0.091052">
        <ele>734.5</ele>
        <time>2018-12-07T11:39:08Z</time>
      </trkpt>
      <trkpt lat="43.067258" lon="-0.090950">
        <ele>734.7</ele>
        <time>2018-12-07T11:39:14Z</time>
      </trkpt>
      <trkpt lat="43.067211" lon="-0.090846">
        <ele>734.8</ele>
        <time>2018-12-07T11:39:20Z</time>
      </trkpt>
      <trkpt lat="43.067164" lon="-0.090731">
        <ele>735.0</ele>
        <time>2018-12-07T11:39:26Z</time>
      </trkpt>
      <trkpt lat="43.067091" lon="-0.090646">
        <ele>735.6</ele>
        <time>2018-12-07T11:39:33Z</time>
      </trkpt>
      <trkpt lat="43.067036" lon="-0.090527">
        <ele>736.1</ele>
        <time>2018-12-07T11:39:40Z</time>
      </trkpt>
      <trkpt lat="43.066980" lon="-0.090408">
        <ele>736.9</ele>
        <time>2018-12-07T11:39:47Z</time>
      </trkpt>
      <trkpt lat="43.066935" lon="-0.090292">
        <ele>737.7</ele>
        <time>2018-12-07T11:39:54Z</time>
      </trkpt>
      <trkpt lat="43.066874" lon="-0.090187">
        <ele>738.6</ele>
        <time>2018-12-07T11:40:02Z</time>
      </trkpt>
      <trkpt lat="43.066828" lon="-0.090047">
        <ele>739.9</ele>
        <time>2018-12-07T11:40:11Z</time>
      </trkpt>
      <trkpt lat="43.066773" lon="-0.089923">
        <ele>741.4</ele>
        <time>2018-12-07T11:40:19Z</time>
      </trkpt>
      <trkpt lat="43.066719" lon="-0.089800">
        <ele>742.6</ele>
        <time>2018-12-07T11:40:27Z</time>
      </trkpt>
      <trkpt lat="43.066668" lon="-0.089699">
        <ele>743.6</ele>
        <time>2018-12-07T11:40:34Z</time>
      </trkpt>
      <trkpt lat="43.066632" lon="-0.089561">
        <ele>744.9</ele>
        <time>2018-12-07T11:40:42Z</time>
      </trkpt>
      <trkpt lat="43.066575" lon="-0.089441">
        <ele>746.2</ele>
        <time>2018-12-07T11:40:50Z</time>
      </trkpt>
      <trkpt lat="43.066519" lon="-0.089326">
        <ele>747.5</ele>
        <time>2018-12-07T11:40:58Z</time>
      </trkpt>
      <trkpt lat="43.066457" lon="-0.089224">
        <ele>748.7</ele>
        <time>2018-12-07T11:41:05Z</time>
      </trkpt>
      <trkpt lat="43.066403" lon="-0.089117">
        <ele>750.3</ele>
        <time>2018-12-07T11:41:13Z</time>
      </trkpt>
      <trkpt lat="43.066343" lon="-0.089011">
        <ele>752.0</ele>
        <time>2018-12-07T11:41:21Z</time>
      </trkpt>
      <trkpt lat="43.066296" lon="-0.088898">
        <ele>753.3</ele>
        <time>2018-12-07T11:41:28Z</time>
      </trkpt>
      <trkpt lat="43.066255" lon="-0.088779">
        <ele>754.6</ele>
        <time>2018-12-07T11:41:35Z</time>
      </trkpt>
      <trkpt lat="43.066204" lon="-0.088673">
        <ele>755.4</ele>
        <time>2018-12-07T11:41:41Z</time>
      </trkpt>
      <trkpt lat="43.066163" lon="-0.088538">
        <ele>756.1</ele>
        <time>2018-12-07T11:41:48Z</time>
      </trkpt>
      <trkpt lat="43.066130" lon="-0.088427">
        <ele>756.6</ele>
        <time>2018-12-07T11:41:55Z</time>
      </trkpt>
      <trkpt lat="43.066095" lon="-0.088318">
        <ele>757.2</ele>
        <time>2018-12-07T11:42:01Z</time>
      </trkpt>
      <trkpt lat="43.066057" lon="-0.088210">
        <ele>757.6</ele>
        <time>2018-12-07T11:42:07Z</time>
      </trkpt>
      <trkpt lat="43.066022" lon="-0.088108">
        <ele>758.2</ele>
        <time>2018-12-07T11:42:13Z</time>
      </trkpt>
      <trkpt lat="43.065966" lon="-0.088009">
        <ele>758.9</ele>
        <time>2018-12-07T11:42:20Z</time>
      </trkpt>
      <trkpt lat="43.065910" lon="-0.087893">
        <ele>759.4</ele>
        <time>2018-12-07T11:42:26Z</time>
      </trkpt>
      <trkpt lat="43.065855" lon="-0.087796">
        <ele>760.2</ele>
        <time>2018-12-07T11:42:32Z</time>
      </trkpt>
      <trkpt lat="43.065783" lon="-0.087702">
        <ele>761.2</ele>
        <time>2018-12-07T11:42:39Z</time>
      </trkpt>
      <trkpt lat="43.065697" lon="-0.087614">
        <ele>762.1</ele>
        <time>2018-12-07T11:42:46Z</time>
      </trkpt>
      <trkpt lat="43.065635" lon="-0.087521">
        <ele>762.8</ele>
        <time>2018-12-07T11:42:53Z</time>
      </trkpt>
      <trkpt lat="43.065570" lon="-0.087407">
        <ele>763.9</ele>
        <time>2018-12-07T11:43:01Z</time>
      </trkpt>
      <trkpt lat="43.065509" lon="-0.087307">
        <ele>764.7</ele>
        <time>2018-12-07T11:43:07Z</time>
      </trkpt>
      <trkpt lat="43.065449" lon="-0.087204">
        <ele>765.6</ele>
        <time>2018-12-07T11:43:14Z</time>
      </trkpt>
      <trkpt lat="43.065417" lon="-0.087083">
        <ele>766.4</ele>
        <time>2018-12-07T11:43:21Z</time>
      </trkpt>
      <trkpt lat="43.065344" lon="-0.086974">
        <ele>767.8</ele>
        <time>2018-12-07T11:43:29Z</time>
      </trkpt>
      <trkpt lat="43.065278" lon="-0.086871">
        <ele>768.9</ele>
        <time>2018-12-07T11:43:37Z</time>
      </trkpt>
      <trkpt lat="43.065208" lon="-0.086750">
        <ele>770.3</ele>
        <time>2018-12-07T11:43:45Z</time>
      </trkpt>
      <trkpt lat="43.065137" lon="-0.086639">
        <ele>772.2</ele>
        <time>2018-12-07T11:43:55Z</time>
      </trkpt>
      <trkpt lat="43.065062" lon="-0.086526">
        <ele>773.7</ele>
        <time>2018-12-07T11:44:04Z</time>
      </trkpt>
      <trkpt lat="43.064989" lon="-0.086425">
        <ele>775.6</ele>
        <time>2018-12-07T11:44:13Z</time>
      </trkpt>
      <trkpt lat="43.064913" lon="-0.086350">
        <ele>776.7</ele>
        <time>2018-12-07T11:44:20Z</time>
      </trkpt>
      <trkpt lat="43.064849" lon="-0.086250">
        <ele>778.0</ele>
        <time>2018-12-07T11:44:29Z</time>
      </trkpt>
      <trkpt lat="43.064787" lon="-0.086152">
        <ele>779.3</ele>
        <time>2018-12-07T11:44:37Z</time>
      </trkpt>
      <trkpt lat="43.064725" lon="-0.086048">
        <ele>780.9</ele>
        <time>2018-12-07T11:44:45Z</time>
      </trkpt>
      <trkpt lat="43.064644" lon="-0.085946">
        <ele>782.4</ele>
        <time>2018-12-07T11:44:54Z</time>
      </trkpt>
      <trkpt lat="43.064583" lon="-0.085840">
        <ele>784.0</ele>
        <time>2018-12-07T11:45:02Z</time>
      </trkpt>
      <trkpt lat="43.064516" lon="-0.085748">
        <ele>785.3</ele>
        <time>2018-12-07T11:45:11Z</time>
      </trkpt>
      <trkpt lat="43.064457" lon="-0.085650">
        <ele>786.4</ele>
        <time>2018-12-07T11:45:19Z</time>
      </trkpt>
      <trkpt lat="43.064408" lon="-0.085566">
        <ele>787.8</ele>
        <time>2018-12-07T11:45:27Z</time>
      </trkpt>
      <trkpt lat="43.064335" lon="-0.085484">
        <ele>789.3</ele>
        <time>2018-12-07T11:45:36Z</time>
      </trkpt>
      <trkpt lat="43.064258" lon="-0.085413">
        <ele>790.4</ele>
        <time>2018-12-07T11:45:44Z</time>
      </trkpt>
      <trkpt lat="43.064172" lon="-0.085360">
        <ele>791.9</ele>
        <time>2018-12-07T11:45:53Z</time>
      </trkpt>
      <trkpt lat="43.064090" lon="-0.085300">
        <ele>793.3</ele>
        <time>2018-12-07T11:46:02Z</time>
      </trkpt>
      <trkpt lat="43.063990" lon="-0.085237">
        <ele>794.3</ele>
        <time>2018-12-07T11:46:09Z</time>
      </trkpt>
      <trkpt lat="43.063905" lon="-0.085295">
        <ele>795.4</ele>
        <time>2018-12-07T11:46:17Z</time>
      </trkpt>
      <trkpt lat="43.063824" lon="-0.085235">
        <ele>796.8</ele>
        <time>2018-12-07T11:46:27Z</time>
      </trkpt>
      <trkpt lat="43.063731" lon="-0.085209">
        <ele>797.8</ele>
        <time>2018-12-07T11:46:37Z</time>
      </trkpt>
      <trkpt lat="43.063647" lon="-0.085182">
        <ele>798.8</ele>
        <time>2018-12-07T11:46:46Z</time>
      </trkpt>
      <trkpt lat="43.063551" lon="-0.085182">
        <ele>800.1</ele>
        <time>2018-12-07T11:46:55Z</time>
      </trkpt>
      <trkpt lat="43.063462" lon="-0.085189">
        <ele>801.3</ele>
        <time>2018-12-07T11:47:05Z</time>
      </trkpt>
      <trkpt lat="43.063368" lon="-0.085212">
        <ele>802.2</ele>
        <time>2018-12-07T11:47:15Z</time>
      </trkpt>
      <trkpt lat="43.063272" lon="-0.085255">
        <ele>803.4</ele>
        <time>2018-12-07T11:47:24Z</time>
      </trkpt>
      <trkpt lat="43.063146" lon="-0.085386">
        <ele>805.5</ele>
        <time>2018-12-07T11:47:36Z</time>
      </trkpt>
      <trkpt lat="43.063032" lon="-0.085441">
        <ele>807.3</ele>
        <time>2018-12-07T11:47:48Z</time>
      </trkpt>
      <trkpt lat="43.062928" lon="-0.085466">
        <ele>808.8</ele>
        <time>2018-12-07T11:47:58Z</time>
      </trkpt>
      <trkpt lat="43.062795" lon="-0.085476">
        <ele>810.4</ele>
        <time>2018-12-07T11:48:10Z</time>
      </trkpt>
      <trkpt lat="43.062671" lon="-0.085477">
        <ele>812.0</ele>
        <time>2018-12-07T11:48:20Z</time>
      </trkpt>
      <trkpt lat="43.062564" lon="-0.085465">
        <ele>813.2</ele>
        <time>2018-12-07T11:48:29Z</time>
      </trkpt>
      <trkpt lat="43.062446" lon="-0.085421">
        <ele>814.5</ele>
        <time>2018-12-07T11:48:39Z</time>
      </trkpt>
      <trkpt lat="43.062343" lon="-0.085420">
        <ele>816.2</ele>
        <time>2018-12-07T11:48:49Z</time>
      </trkpt>
      <trkpt lat="43.062229" lon="-0.085422">
        <ele>817.4</ele>
        <time>2018-12-07T11:48:59Z</time>
      </trkpt>
      <trkpt lat="43.062114" lon="-0.085383">
        <ele>818.5</ele>
        <time>2018-12-07T11:49:10Z</time>
      </trkpt>
      <trkpt lat="43.062002" lon="-0.085320">
        <ele>819.3</ele>
        <time>2018-12-07T11:49:19Z</time>
      </trkpt>
      <trkpt lat="43.061901" lon="-0.085244">
        <ele>820.2</ele>
        <time>2018-12-07T11:49:28Z</time>
      </trkpt>
      <trkpt lat="43.061814" lon="-0.085107">
        <ele>821.3</ele>
        <time>2018-12-07T11:49:39Z</time>
      </trkpt>
      <trkpt lat="43.061704" lon="-0.084992">
        <ele>822.4</ele>
        <time>2018-12-07T11:49:48Z</time>
      </trkpt>
      <trkpt lat="43.061610" lon="-0.084885">
        <ele>823.5</ele>
        <time>2018-12-07T11:49:56Z</time>
      </trkpt>
      <trkpt lat="43.061499" lon="-0.084747">
        <ele>824.8</ele>
        <time>2018-12-07T11:50:06Z</time>
      </trkpt>
      <trkpt lat="43.061431" lon="-0.084693">
        <ele>826.4</ele>
        <time>2018-12-07T11:50:17Z</time>
      </trkpt>
      <trkpt lat="43.061307" lon="-0.084624">
        <ele>827.3</ele>
        <time>2018-12-07T11:50:28Z</time>
      </trkpt>
      <trkpt lat="43.061208" lon="-0.084561">
        <ele>828.0</ele>
        <time>2018-12-07T11:50:35Z</time>
      </trkpt>
      <trkpt lat="43.061131" lon="-0.084468">
        <ele>828.6</ele>
        <time>2018-12-07T11:50:42Z</time>
      </trkpt>
      <trkpt lat="43.061068" lon="-0.084346">
        <ele>828.7</ele>
        <time>2018-12-07T11:50:49Z</time>
      </trkpt>
      <trkpt lat="43.061038" lon="-0.084188">
        <ele>828.9</ele>
        <time>2018-12-07T11:50:56Z</time>
      </trkpt>
      <trkpt lat="43.061042" lon="-0.084031">
        <ele>828.9</ele>
        <time>2018-12-07T11:51:04Z</time>
      </trkpt>
      <trkpt lat="43.061046" lon="-0.083882">
        <ele>828.8</ele>
        <time>2018-12-07T11:51:12Z</time>
      </trkpt>
      <trkpt lat="43.061050" lon="-0.083732">
        <ele>828.4</ele>
        <time>2018-12-07T11:51:19Z</time>
      </trkpt>
      <trkpt lat="43.061011" lon="-0.083605">
        <ele>827.8</ele>
        <time>2018-12-07T11:51:28Z</time>
      </trkpt>
      <trkpt lat="43.060971" lon="-0.083498">
        <ele>827.6</ele>
        <time>2018-12-07T11:51:38Z</time>
      </trkpt>
      <trkpt lat="43.060969" lon="-0.083369">
        <ele>827.4</ele>
        <time>2018-12-07T11:51:44Z</time>
      </trkpt>
      <trkpt lat="43.060952" lon="-0.083254">
        <ele>826.7</ele>
        <time>2018-12-07T11:51:52Z</time>
      </trkpt>
      <trkpt lat="43.060859" lon="-0.083186">
        <ele>826.5</ele>
        <time>2018-12-07T11:52:04Z</time>
      </trkpt>
      <trkpt lat="43.060746" lon="-0.083182">
        <ele>830.2</ele>
        <time>2018-12-07T11:52:24Z</time>
      </trkpt>
      <trkpt lat="43.060640" lon="-0.083183">
        <ele>833.7</ele>
        <time>2018-12-07T11:52:40Z</time>
      </trkpt>
      <trkpt lat="43.060543" lon="-0.083223">
        <ele>837.9</ele>
        <time>2018-12-07T11:53:00Z</time>
      </trkpt>
      <trkpt lat="43.060443" lon="-0.083249">
        <ele>841.4</ele>
        <time>2018-12-07T11:53:18Z</time>
      </trkpt>
      <trkpt lat="43.060359" lon="-0.083263">
        <ele>845.1</ele>
        <time>2018-12-07T11:53:36Z</time>
      </trkpt>
      <trkpt lat="43.060267" lon="-0.083320">
        <ele>849.0</ele>
        <time>2018-12-07T11:53:56Z</time>
      </trkpt>
      <trkpt lat="43.060163" lon="-0.083390">
        <ele>853.2</ele>
        <time>2018-12-07T11:54:19Z</time>
      </trkpt>
      <trkpt lat="43.060093" lon="-0.083373">
        <ele>857.3</ele>
        <time>2018-12-07T11:54:42Z</time>
      </trkpt>
      <trkpt lat="43.059997" lon="-0.083423">
        <ele>860.6</ele>
        <time>2018-12-07T11:55:04Z</time>
      </trkpt>
      <trkpt lat="43.059903" lon="-0.083396">
        <ele>864.3</ele>
        <time>2018-12-07T11:55:26Z</time>
      </trkpt>
      <trkpt lat="43.059800" lon="-0.083369">
        <ele>868.3</ele>
        <time>2018-12-07T11:55:48Z</time>
      </trkpt>
      <trkpt lat="43.059687" lon="-0.083361">
        <ele>872.6</ele>
        <time>2018-12-07T11:56:09Z</time>
      </trkpt>
      <trkpt lat="43.059594" lon="-0.083368">
        <ele>876.4</ele>
        <time>2018-12-07T11:56:30Z</time>
      </trkpt>
      <trkpt lat="43.059510" lon="-0.083397">
        <ele>880.2</ele>
        <time>2018-12-07T11:56:53Z</time>
      </trkpt>
      <trkpt lat="43.059401" lon="-0.083451">
        <ele>884.7</ele>
        <time>2018-12-07T11:57:16Z</time>
      </trkpt>
      <trkpt lat="43.059300" lon="-0.083467">
        <ele>888.3</ele>
        <time>2018-12-07T11:57:37Z</time>
      </trkpt>
      <trkpt lat="43.059216" lon="-0.083371">
        <ele>892.3</ele>
        <time>2018-12-07T11:57:56Z</time>
      </trkpt>
      <trkpt lat="43.059102" lon="-0.083364">
        <ele>897.5</ele>
        <time>2018-12-07T11:58:19Z</time>
      </trkpt>
      <trkpt lat="43.059015" lon="-0.083358">
        <ele>902.3</ele>
        <time>2018-12-07T11:58:41Z</time>
      </trkpt>
      <trkpt lat="43.058930" lon="-0.083366">
        <ele>906.7</ele>
        <time>2018-12-07T11:59:01Z</time>
      </trkpt>
      <trkpt lat="43.058830" lon="-0.083323">
        <ele>909.3</ele>
        <time>2018-12-07T11:59:17Z</time>
      </trkpt>
      <trkpt lat="43.058722" lon="-0.083377">
        <ele>912.6</ele>
        <time>2018-12-07T11:59:34Z</time>
      </trkpt>
      <trkpt lat="43.058635" lon="-0.083425">
        <ele>917.6</ele>
        <time>2018-12-07T12:00:01Z</time>
      </trkpt>
      <trkpt lat="43.058562" lon="-0.083469">
        <ele>920.2</ele>
        <time>2018-12-07T12:00:16Z</time>
      </trkpt>
      <trkpt lat="43.058461" lon="-0.083502">
        <ele>924.1</ele>
        <time>2018-12-07T12:00:36Z</time>
      </trkpt>
      <trkpt lat="43.058383" lon="-0.083567">
        <ele>927.8</ele>
        <time>2018-12-07T12:00:57Z</time>
      </trkpt>
      <trkpt lat="43.058266" lon="-0.083557">
        <ele>933.1</ele>
        <time>2018-12-07T12:01:27Z</time>
      </trkpt>
      <trkpt lat="43.058195" lon="-0.083630">
        <ele>936.5</ele>
        <time>2018-12-07T12:01:47Z</time>
      </trkpt>
      <trkpt lat="43.058093" lon="-0.083589">
        <ele>940.2</ele>
        <time>2018-12-07T12:02:06Z</time>
      </trkpt>
      <trkpt lat="43.057987" lon="-0.083650">
        <ele>945.0</ele>
        <time>2018-12-07T12:02:26Z</time>
      </trkpt>
      <trkpt lat="43.057910" lon="-0.083685">
        <ele>949.6</ele>
        <time>2018-12-07T12:03:00Z</time>
      </trkpt>
      <trkpt lat="43.057830" lon="-0.083761">
        <ele>952.0</ele>
        <time>2018-12-07T12:03:30Z</time>
      </trkpt>
      <trkpt lat="43.057742" lon="-0.083815">
        <ele>956.3</ele>
        <time>2018-12-07T12:03:48Z</time>
      </trkpt>
      <trkpt lat="43.057654" lon="-0.083908">
        <ele>959.8</ele>
        <time>2018-12-07T12:04:05Z</time>
      </trkpt>
      <trkpt lat="43.057549" lon="-0.083981">
        <ele>963.1</ele>
        <time>2018-12-07T12:04:24Z</time>
      </trkpt>
      <trkpt lat="43.057436" lon="-0.084030">
        <ele>966.9</ele>
        <time>2018-12-07T12:04:43Z</time>
      </trkpt>
      <trkpt lat="43.057335" lon="-0.084085">
        <ele>970.4</ele>
        <time>2018-12-07T12:05:02Z</time>
      </trkpt>
      <trkpt lat="43.057251" lon="-0.084141">
        <ele>974.2</ele>
        <time>2018-12-07T12:05:23Z</time>
      </trkpt>
      <trkpt lat="43.057186" lon="-0.084210">
        <ele>978.5</ele>
        <time>2018-12-07T12:05:46Z</time>
      </trkpt>
      <trkpt lat="43.057096" lon="-0.084204">
        <ele>980.8</ele>
        <time>2018-12-07T12:06:01Z</time>
      </trkpt>
      <trkpt lat="43.057026" lon="-0.084180">
        <ele>985.0</ele>
        <time>2018-12-07T12:06:30Z</time>
      </trkpt>
      <trkpt lat="43.056951" lon="-0.084151">
        <ele>987.1</ele>
        <time>2018-12-07T12:07:06Z</time>
      </trkpt>
      <trkpt lat="43.056954" lon="-0.084022">
        <ele>989.8</ele>
        <time>2018-12-07T12:07:30Z</time>
      </trkpt>
      <trkpt lat="43.057005" lon="-0.083871">
        <ele>993.3</ele>
        <time>2018-12-07T12:07:50Z</time>
      </trkpt>
      <trkpt lat="43.057058" lon="-0.083743">
        <ele>996.1</ele>
        <time>2018-12-07T12:08:04Z</time>
      </trkpt>
      <trkpt lat="43.057048" lon="-0.083622">
        <ele>999.7</ele>
        <time>2018-12-07T12:08:22Z</time>
      </trkpt>
      <trkpt lat="43.057054" lon="-0.083474">
        <ele>1001.8</ele>
        <time>2018-12-07T12:08:36Z</time>
      </trkpt>
      <trkpt lat="43.057069" lon="-0.083344">
        <ele>1004.0</ele>
        <time>2018-12-07T12:08:49Z</time>
      </trkpt>
      <trkpt lat="43.057096" lon="-0.083233">
        <ele>1007.7</ele>
        <time>2018-12-07T12:09:08Z</time>
      </trkpt>
      <trkpt lat="43.057111" lon="-0.083149">
        <ele>1010.6</ele>
        <time>2018-12-07T12:09:25Z</time>
      </trkpt>
      <trkpt lat="43.057101" lon="-0.083025">
        <ele>1013.7</ele>
        <time>2018-12-07T12:09:42Z</time>
      </trkpt>
      <trkpt lat="43.057186" lon="-0.082943">
        <ele>1017.2</ele>
        <time>2018-12-07T12:10:00Z</time>
      </trkpt>
      <trkpt lat="43.057251" lon="-0.082834">
        <ele>1020.2</ele>
        <time>2018-12-07T12:10:19Z</time>
      </trkpt>
      <trkpt lat="43.057314" lon="-0.082758">
        <ele>1023.0</ele>
        <time>2018-12-07T12:10:35Z</time>
      </trkpt>
      <trkpt lat="43.057401" lon="-0.082684">
        <ele>1026.3</ele>
        <time>2018-12-07T12:10:54Z</time>
      </trkpt>
      <trkpt lat="43.057476" lon="-0.082601">
        <ele>1029.0</ele>
        <time>2018-12-07T12:11:09Z</time>
      </trkpt>
      <trkpt lat="43.057482" lon="-0.082495">
        <ele>1031.8</ele>
        <time>2018-12-07T12:11:25Z</time>
      </trkpt>
      <trkpt lat="43.057444" lon="-0.082389">
        <ele>1035.4</ele>
        <time>2018-12-07T12:11:43Z</time>
      </trkpt>
      <trkpt lat="43.057408" lon="-0.082296">
        <ele>1039.1</ele>
        <time>2018-12-07T12:11:59Z</time>
      </trkpt>
      <trkpt lat="43.057368" lon="-0.082216">
        <ele>1043.3</ele>
        <time>2018-12-07T12:12:17Z</time>
      </trkpt>
      <trkpt lat="43.057313" lon="-0.082241">
        <ele>1047.9</ele>
        <time>2018-12-07T12:12:43Z</time>
      </trkpt>
      <trkpt lat="43.057224" lon="-0.082236">
        <ele>1050.7</ele>
        <time>2018-12-07T12:13:07Z</time>
      </trkpt>
      <trkpt lat="43.057140" lon="-0.082210">
        <ele>1054.1</ele>
        <time>2018-12-07T12:13:27Z</time>
      </trkpt>
      <trkpt lat="43.057194" lon="-0.082132">
        <ele>1057.4</ele>
        <time>2018-12-07T12:13:47Z</time>
      </trkpt>
      <trkpt lat="43.057203" lon="-0.081995">
        <ele>1060.1</ele>
        <time>2018-12-07T12:14:02Z</time>
      </trkpt>
      <trkpt lat="43.057227" lon="-0.081878">
        <ele>1064.9</ele>
        <time>2018-12-07T12:14:25Z</time>
      </trkpt>
      <trkpt lat="43.057237" lon="-0.081746">
        <ele>1068.2</ele>
        <time>2018-12-07T12:14:42Z</time>
      </trkpt>
      <trkpt lat="43.057308" lon="-0.081646">
        <ele>1071.6</ele>
        <time>2018-12-07T12:14:58Z</time>
      </trkpt>
      <trkpt lat="43.057316" lon="-0.081515">
        <ele>1074.9</ele>
        <time>2018-12-07T12:15:15Z</time>
      </trkpt>
      <trkpt lat="43.057325" lon="-0.081377">
        <ele>1077.4</ele>
        <time>2018-12-07T12:15:32Z</time>
      </trkpt>
      <trkpt lat="43.057348" lon="-0.081250">
        <ele>1080.4</ele>
        <time>2018-12-07T12:15:48Z</time>
      </trkpt>
      <trkpt lat="43.057377" lon="-0.081175">
        <ele>1084.4</ele>
        <time>2018-12-07T12:16:09Z</time>
      </trkpt>
      <trkpt lat="43.057415" lon="-0.081059">
        <ele>1087.0</ele>
        <time>2018-12-07T12:16:29Z</time>
      </trkpt>
      <trkpt lat="43.057432" lon="-0.080915">
        <ele>1090.6</ele>
        <time>2018-12-07T12:16:46Z</time>
      </trkpt>
      <trkpt lat="43.057475" lon="-0.080761">
        <ele>1093.2</ele>
        <time>2018-12-07T12:17:00Z</time>
      </trkpt>
      <trkpt lat="43.057478" lon="-0.080618">
        <ele>1095.8</ele>
        <time>2018-12-07T12:17:14Z</time>
      </trkpt>
      <trkpt lat="43.057548" lon="-0.080517">
        <ele>1098.7</ele>
        <time>2018-12-07T12:17:26Z</time>
      </trkpt>
      <trkpt lat="43.057603" lon="-0.080427">
        <ele>1101.7</ele>
        <time>2018-12-07T12:17:40Z</time>
      </trkpt>
      <trkpt lat="43.057681" lon="-0.080371">
        <ele>1102.2</ele>
        <time>2018-12-07T12:17:51Z</time>
      </trkpt>
      <trkpt lat="43.057731" lon="-0.080250">
        <ele>1102.9</ele>
        <time>2018-12-07T12:18:01Z</time>
      </trkpt>
      <trkpt lat="43.057773" lon="-0.080121">
        <ele>1103.9</ele>
        <time>2018-12-07T12:18:12Z</time>
      </trkpt>
      <trkpt lat="43.057804" lon="-0.080006">
        <ele>1104.8</ele>
        <time>2018-12-07T12:18:21Z</time>
      </trkpt>
      <trkpt lat="43.057817" lon="-0.079874">
        <ele>1105.7</ele>
        <time>2018-12-07T12:18:29Z</time>
      </trkpt>
      <trkpt lat="43.057819" lon="-0.079745">
        <ele>1106.8</ele>
        <time>2018-12-07T12:18:38Z</time>
      </trkpt>
      <trkpt lat="43.057795" lon="-0.079621">
        <ele>1108.2</ele>
        <time>2018-12-07T12:18:50Z</time>
      </trkpt>
      <trkpt lat="43.057730" lon="-0.079680">
        <ele>1111.5</ele>
        <time>2018-12-07T12:20:54Z</time>
      </trkpt>
      <trkpt lat="43.057645" lon="-0.079744">
        <ele>1114.0</ele>
        <time>2018-12-07T12:21:12Z</time>
      </trkpt>
      <trkpt lat="43.057561" lon="-0.079809">
        <ele>1117.5</ele>
        <time>2018-12-07T12:21:29Z</time>
      </trkpt>
      <trkpt lat="43.057488" lon="-0.079909">
        <ele>1120.7</ele>
        <time>2018-12-07T12:21:43Z</time>
      </trkpt>
      <trkpt lat="43.057406" lon="-0.079981">
        <ele>1123.7</ele>
        <time>2018-12-07T12:21:56Z</time>
      </trkpt>
      <trkpt lat="43.057310" lon="-0.080025">
        <ele>1125.9</ele>
        <time>2018-12-07T12:22:08Z</time>
      </trkpt>
      <trkpt lat="43.057251" lon="-0.080074">
        <ele>1128.6</ele>
        <time>2018-12-07T12:22:43Z</time>
      </trkpt>
      <trkpt lat="43.057165" lon="-0.080151">
        <ele>1129.4</ele>
        <time>2018-12-07T12:22:52Z</time>
      </trkpt>
      <trkpt lat="43.057086" lon="-0.080212">
        <ele>1129.4</ele>
        <time>2018-12-07T12:23:01Z</time>
      </trkpt>
      <trkpt lat="43.057009" lon="-0.080303">
        <ele>1131.4</ele>
        <time>2018-12-07T12:23:13Z</time>
      </trkpt>
      <trkpt lat="43.056923" lon="-0.080381">
        <ele>1135.0</ele>
        <time>2018-12-07T12:23:27Z</time>
      </trkpt>
      <trkpt lat="43.056848" lon="-0.080453">
        <ele>1138.0</ele>
        <time>2018-12-07T12:23:39Z</time>
      </trkpt>
      <trkpt lat="43.056783" lon="-0.080554">
        <ele>1139.2</ele>
        <time>2018-12-07T12:23:49Z</time>
      </trkpt>
      <trkpt lat="43.056713" lon="-0.080632">
        <ele>1140.8</ele>
        <time>2018-12-07T12:24:02Z</time>
      </trkpt>
      <trkpt lat="43.056623" lon="-0.080686">
        <ele>1144.3</ele>
        <time>2018-12-07T12:24:17Z</time>
      </trkpt>
      <trkpt lat="43.056532" lon="-0.080726">
        <ele>1145.8</ele>
        <time>2018-12-07T12:24:26Z</time>
      </trkpt>
      <trkpt lat="43.056440" lon="-0.080771">
        <ele>1146.3</ele>
        <time>2018-12-07T12:24:35Z</time>
      </trkpt>
      <trkpt lat="43.056357" lon="-0.080800">
        <ele>1146.9</ele>
        <time>2018-12-07T12:25:07Z</time>
      </trkpt>
      <trkpt lat="43.056275" lon="-0.080877">
        <ele>1148.7</ele>
        <time>2018-12-07T12:26:20Z</time>
      </trkpt>
      <trkpt lat="43.056208" lon="-0.080967">
        <ele>1147.6</ele>
        <time>2018-12-07T12:26:30Z</time>
      </trkpt>
      <trkpt lat="43.056115" lon="-0.080964">
        <ele>1146.7</ele>
        <time>2018-12-07T12:26:37Z</time>
      </trkpt>
      <trkpt lat="43.056027" lon="-0.081005">
        <ele>1146.5</ele>
        <time>2018-12-07T12:26:45Z</time>
      </trkpt>
      <trkpt lat="43.055942" lon="-0.081077">
        <ele>1147.6</ele>
        <time>2018-12-07T12:26:53Z</time>
      </trkpt>
      <trkpt lat="43.055873" lon="-0.081145">
        <ele>1148.2</ele>
        <time>2018-12-07T12:27:00Z</time>
      </trkpt>
      <trkpt lat="43.055783" lon="-0.081177">
        <ele>1148.2</ele>
        <time>2018-12-07T12:27:08Z</time>
      </trkpt>
      <trkpt lat="43.055690" lon="-0.081180">
        <ele>1149.0</ele>
        <time>2018-12-07T12:27:19Z</time>
      </trkpt>
      <trkpt lat="43.055595" lon="-0.081245">
        <ele>1151.3</ele>
        <time>2018-12-07T12:27:43Z</time>
      </trkpt>
      <trkpt lat="43.055513" lon="-0.081307">
        <ele>1154.0</ele>
        <time>2018-12-07T12:27:55Z</time>
      </trkpt>
      <trkpt lat="43.055407" lon="-0.081354">
        <ele>1156.3</ele>
        <time>2018-12-07T12:28:07Z</time>
      </trkpt>
      <trkpt lat="43.055295" lon="-0.081421">
        <ele>1158.3</ele>
        <time>2018-12-07T12:28:23Z</time>
      </trkpt>
      <trkpt lat="43.055165" lon="-0.081508">
        <ele>1161.8</ele>
        <time>2018-12-07T12:28:44Z</time>
      </trkpt>
      <trkpt lat="43.055056" lon="-0.081628">
        <ele>1165.5</ele>
        <time>2018-12-07T12:29:03Z</time>
      </trkpt>
      <trkpt lat="43.054969" lon="-0.081683">
        <ele>1170.3</ele>
        <time>2018-12-07T12:29:26Z</time>
      </trkpt>
      <trkpt lat="43.054857" lon="-0.081712">
        <ele>1174.3</ele>
        <time>2018-12-07T12:29:47Z</time>
      </trkpt>
      <trkpt lat="43.054765" lon="-0.081684">
        <ele>1180.5</ele>
        <time>2018-12-07T12:30:15Z</time>
      </trkpt>
      <trkpt lat="43.054687" lon="-0.081661">
        <ele>1185.0</ele>
        <time>2018-12-07T12:30:39Z</time>
      </trkpt>
      <trkpt lat="43.054591" lon="-0.081690">
        <ele>1191.8</ele>
        <time>2018-12-07T12:31:06Z</time>
      </trkpt>
      <trkpt lat="43.054522" lon="-0.081726">
        <ele>1195.7</ele>
        <time>2018-12-07T12:31:29Z</time>
      </trkpt>
      <trkpt lat="43.054440" lon="-0.081658">
        <ele>1199.8</ele>
        <time>2018-12-07T12:31:51Z</time>
      </trkpt>
      <trkpt lat="43.054353" lon="-0.081678">
        <ele>1204.4</ele>
        <time>2018-12-07T12:32:13Z</time>
      </trkpt>
      <trkpt lat="43.054290" lon="-0.081742">
        <ele>1208.7</ele>
        <time>2018-12-07T12:32:35Z</time>
      </trkpt>
      <trkpt lat="43.054204" lon="-0.081784">
        <ele>1213.5</ele>
        <time>2018-12-07T12:32:58Z</time>
      </trkpt>
      <trkpt lat="43.054102" lon="-0.081838">
        <ele>1218.0</ele>
        <time>2018-12-07T12:33:21Z</time>
      </trkpt>
      <trkpt lat="43.054014" lon="-0.081862">
        <ele>1221.8</ele>
        <time>2018-12-07T12:33:44Z</time>
      </trkpt>
      <trkpt lat="43.053932" lon="-0.081895">
        <ele>1225.1</ele>
        <time>2018-12-07T12:34:02Z</time>
      </trkpt>
      <trkpt lat="43.053851" lon="-0.081932">
        <ele>1229.4</ele>
        <time>2018-12-07T12:34:25Z</time>
      </trkpt>
      <trkpt lat="43.053771" lon="-0.081990">
        <ele>1235.6</ele>
        <time>2018-12-07T12:35:00Z</time>
      </trkpt>
      <trkpt lat="43.053694" lon="-0.082041">
        <ele>1240.1</ele>
        <time>2018-12-07T12:35:24Z</time>
      </trkpt>
      <trkpt lat="43.053653" lon="-0.082087">
        <ele>1244.8</ele>
        <time>2018-12-07T12:36:07Z</time>
      </trkpt>
      <trkpt lat="43.053575" lon="-0.082109">
        <ele>1247.8</ele>
        <time>2018-12-07T12:36:33Z</time>
      </trkpt>
      <trkpt lat="43.053499" lon="-0.082150">
        <ele>1252.0</ele>
        <time>2018-12-07T12:36:59Z</time>
      </trkpt>
      <trkpt lat="43.053404" lon="-0.082150">
        <ele>1257.0</ele>
        <time>2018-12-07T12:37:26Z</time>
      </trkpt>
      <trkpt lat="43.053308" lon="-0.082187">
        <ele>1263.5</ele>
        <time>2018-12-07T12:37:55Z</time>
      </trkpt>
      <trkpt lat="43.053214" lon="-0.082243">
        <ele>1267.8</ele>
        <time>2018-12-07T12:38:17Z</time>
      </trkpt>
      <trkpt lat="43.053133" lon="-0.082183">
        <ele>1273.2</ele>
        <time>2018-12-07T12:38:40Z</time>
      </trkpt>
      <trkpt lat="43.053054" lon="-0.082198">
        <ele>1278.9</ele>
        <time>2018-12-07T12:39:09Z</time>
      </trkpt>
      <trkpt lat="43.052971" lon="-0.082244">
        <ele>1284.2</ele>
        <time>2018-12-07T12:39:33Z</time>
      </trkpt>
      <trkpt lat="43.052887" lon="-0.082228">
        <ele>1289.1</ele>
        <time>2018-12-07T12:39:55Z</time>
      </trkpt>
      <trkpt lat="43.052809" lon="-0.082225">
        <ele>1295.4</ele>
        <time>2018-12-07T12:40:31Z</time>
      </trkpt>
      <trkpt lat="43.052761" lon="-0.082189">
        <ele>1300.2</ele>
        <time>2018-12-07T12:40:54Z</time>
      </trkpt>
      <trkpt lat="43.052700" lon="-0.082154">
        <ele>1303.8</ele>
        <time>2018-12-07T12:41:14Z</time>
      </trkpt>
      <trkpt lat="43.052642" lon="-0.082152">
        <ele>1305.9</ele>
        <time>2018-12-07T12:41:27Z</time>
      </trkpt>
      <trkpt lat="43.052630" lon="-0.082266">
        <ele>1309.6</ele>
        <time>2018-12-07T12:41:46Z</time>
      </trkpt>
      <trkpt lat="43.052620" lon="-0.082360">
        <ele>1314.4</ele>
        <time>2018-12-07T12:42:05Z</time>
      </trkpt>
      <trkpt lat="43.052619" lon="-0.082474">
        <ele>1318.5</ele>
        <time>2018-12-07T12:42:23Z</time>
      </trkpt>
      <trkpt lat="43.052569" lon="-0.082461">
        <ele>1325.4</ele>
        <time>2018-12-07T12:42:51Z</time>
      </trkpt>
      <trkpt lat="43.052485" lon="-0.082370">
        <ele>1324.9</ele>
        <time>2018-12-07T12:43:01Z</time>
      </trkpt>
      <trkpt lat="43.052412" lon="-0.082266">
        <ele>1323.7</ele>
        <time>2018-12-07T12:43:12Z</time>
      </trkpt>
      <trkpt lat="43.052337" lon="-0.082155">
        <ele>1323.0</ele>
        <time>2018-12-07T12:43:30Z</time>
      </trkpt>
      <trkpt lat="43.052259" lon="-0.081955">
        <ele>1322.0</ele>
        <time>2018-12-07T12:43:45Z</time>
      </trkpt>
      <trkpt lat="43.052204" lon="-0.081787">
        <ele>1321.9</ele>
        <time>2018-12-07T12:43:56Z</time>
      </trkpt>
      <trkpt lat="43.052148" lon="-0.081656">
        <ele>1322.0</ele>
        <time>2018-12-07T12:44:09Z</time>
      </trkpt>
      <trkpt lat="43.052114" lon="-0.081473">
        <ele>1321.9</ele>
        <time>2018-12-07T12:44:21Z</time>
      </trkpt>
      <trkpt lat="43.052095" lon="-0.081340">
        <ele>1321.9</ele>
        <time>2018-12-07T12:44:32Z</time>
      </trkpt>
      <trkpt lat="43.052079" lon="-0.081199">
        <ele>1322.5</ele>
        <time>2018-12-07T12:44:44Z</time>
      </trkpt>
      <trkpt lat="43.052016" lon="-0.081080">
        <ele>1323.9</ele>
        <time>2018-12-07T12:44:58Z</time>
      </trkpt>
      <trkpt lat="43.051989" lon="-0.080951">
        <ele>1326.0</ele>
        <time>2018-12-07T12:45:21Z</time>
      </trkpt>
      <trkpt lat="43.051944" lon="-0.080823">
        <ele>1329.9</ele>
        <time>2018-12-07T12:45:38Z</time>
      </trkpt>
      <trkpt lat="43.051911" lon="-0.080738">
        <ele>1332.8</ele>
        <time>2018-12-07T12:46:07Z</time>
      </trkpt>
      <trkpt lat="43.051893" lon="-0.080652">
        <ele>1332.5</ele>
        <time>2018-12-07T12:47:02Z</time>
      </trkpt>
      <trkpt lat="43.051829" lon="-0.080575">
        <ele>1331.5</ele>
        <time>2018-12-07T12:47:12Z</time>
      </trkpt>
    </trkseg>
  </trk>
</gpx>

